createdAt,value
2023-05-11T00:00:34.214Z,12.88
2023-05-11T00:03:00.859Z,12.73
2023-05-11T00:05:27.520Z,13.32
2023-05-11T00:07:53.995Z,12.95
2023-05-11T00:10:20.546Z,13.02
2023-05-11T00:12:47.035Z,13.38
2023-05-11T00:15:13.532Z,12.50
2023-05-11T00:17:40.027Z,13.43
2023-05-11T00:20:07.668Z,13.98
2023-05-11T00:22:34.215Z,13.48
2023-05-11T00:25:00.724Z,13.23
2023-05-11T00:27:27.152Z,14.02
2023-05-11T00:29:53.578Z,13.85
2023-05-11T00:32:20.115Z,14.30
2023-05-11T00:34:46.567Z,15.00
2023-05-11T00:37:13.002Z,13.55
2023-05-11T00:39:40.635Z,14.52
2023-05-11T00:42:07.453Z,13.52
2023-05-11T00:44:34.037Z,14.70
2023-05-11T00:47:00.905Z,13.88
2023-05-11T00:49:27.745Z,12.77
2023-05-11T00:51:54.305Z,13.45
2023-05-11T00:54:21.234Z,14.23
2023-05-11T00:56:48.359Z,14.98
2023-05-11T00:59:14.885Z,13.45
2023-05-11T01:01:41.738Z,14.75
2023-05-11T01:04:08.490Z,13.98
2023-05-11T01:06:48.204Z,14.48
2023-05-11T01:09:51.707Z,13.43
2023-05-11T01:12:59.688Z,14.30
2023-05-11T01:15:56.136Z,14.05
2023-05-11T01:18:42.452Z,13.80
2023-05-11T01:21:11.913Z,14.05
2023-05-11T01:23:45.547Z,15.05
2023-05-11T01:26:49.577Z,15.93
2023-05-11T01:29:24.898Z,13.88
2023-05-11T01:31:53.406Z,14.30
2023-05-11T01:34:23.707Z,15.48
2023-05-11T01:36:53.481Z,13.65
2023-05-11T01:41:51.598Z,12.75
2023-05-11T01:44:19.681Z,13.68
2023-05-11T01:46:46.573Z,13.15
2023-05-11T01:49:14.301Z,15.02
2023-05-11T01:51:42.310Z,13.85
2023-05-11T01:54:09.673Z,15.00
2023-05-11T01:56:38.018Z,14.15
2023-05-11T01:59:05.135Z,13.93
2023-05-11T02:01:34.214Z,14.23
2023-05-11T02:04:02.480Z,14.57
2023-05-11T02:06:29.454Z,14.38
2023-05-11T02:08:56.454Z,14.00
2023-05-11T02:11:24.398Z,14.55
2023-05-11T02:13:51.878Z,14.65
2023-05-11T02:16:19.003Z,13.70
2023-05-11T02:18:46.381Z,14.02
2023-05-11T02:21:14.653Z,13.85
2023-05-11T02:23:41.894Z,14.10
2023-05-11T02:26:08.758Z,15.10
2023-05-11T02:28:35.994Z,13.10
2023-05-11T02:31:06.042Z,14.35
2023-05-11T02:33:35.609Z,14.82
2023-05-11T02:36:03.038Z,13.55
2023-05-11T02:38:31.612Z,14.63
2023-05-11T02:41:01.919Z,13.73
2023-05-11T02:43:31.337Z,13.40
2023-05-11T02:46:03.413Z,13.90
2023-05-11T02:48:34.643Z,13.50
2023-05-11T02:51:02.333Z,15.48
2023-05-11T02:53:31.575Z,13.77
2023-05-11T02:55:59.299Z,13.18
2023-05-11T02:58:25.874Z,14.18
2023-05-11T03:00:52.533Z,13.30
2023-05-11T03:03:19.168Z,14.68
2023-05-11T03:05:45.863Z,13.82
2023-05-11T03:08:12.449Z,13.75
2023-05-11T03:10:39.146Z,14.48
2023-05-11T03:13:05.950Z,13.63
2023-05-11T03:15:32.854Z,12.65
2023-05-11T03:17:59.418Z,13.55
2023-05-11T03:20:27.117Z,13.52
2023-05-11T03:22:53.875Z,12.75
2023-05-11T03:25:20.908Z,11.70
2023-05-11T03:27:47.904Z,13.27
2023-05-11T03:30:14.978Z,13.48
2023-05-11T03:32:41.434Z,13.80
2023-05-11T03:35:08.716Z,14.85
2023-05-11T03:37:37.219Z,13.65
2023-05-11T03:40:04.435Z,13.57
2023-05-11T03:42:33.327Z,15.18
2023-05-11T03:45:00.730Z,15.35
2023-05-11T03:47:30.678Z,15.25
2023-05-11T03:49:58.345Z,14.82
2023-05-11T03:52:25.333Z,14.95
2023-05-11T03:54:51.858Z,19.02
2023-05-11T03:57:18.348Z,15.68
2023-05-11T03:59:44.830Z,14.48
2023-05-11T04:02:11.291Z,14.25
2023-05-11T04:04:37.865Z,13.75
2023-05-11T04:07:04.404Z,14.27
2023-05-11T04:09:30.956Z,14.13
2023-05-11T04:11:57.485Z,15.55
2023-05-11T04:14:23.908Z,13.50
2023-05-11T04:16:50.379Z,14.77
2023-05-11T04:19:16.867Z,13.70
2023-05-11T04:21:43.553Z,13.88
2023-05-11T04:24:10.021Z,13.38
2023-05-11T04:26:36.519Z,12.88
2023-05-11T04:29:03.662Z,12.35
2023-05-11T04:31:30.500Z,12.18
2023-05-11T04:33:57.003Z,12.90
2023-05-11T04:36:23.802Z,12.13
2023-05-11T04:38:50.402Z,13.40
2023-05-11T04:41:16.856Z,14.27
2023-05-11T04:43:43.294Z,12.25
2023-05-11T04:46:09.852Z,13.88
2023-05-11T04:48:36.723Z,14.98
2023-05-11T04:51:06.791Z,14.45
2023-05-11T04:53:33.332Z,13.60
2023-05-11T04:55:59.811Z,15.13
2023-05-11T04:58:26.218Z,14.38
2023-05-11T05:00:52.745Z,15.00
2023-05-11T05:03:19.276Z,13.32
2023-05-11T05:05:45.740Z,15.02
2023-05-11T05:08:12.175Z,15.43
2023-05-11T05:10:38.600Z,14.02
2023-05-11T05:13:05.038Z,14.48
2023-05-11T05:15:31.461Z,13.95
2023-05-11T05:17:57.980Z,15.35
2023-05-11T05:20:24.474Z,14.80
2023-05-11T05:22:50.975Z,13.30
2023-05-11T05:25:17.442Z,14.60
2023-05-11T05:27:43.902Z,13.77
2023-05-11T05:30:10.549Z,15.20
2023-05-11T05:32:37.001Z,14.65
2023-05-11T05:35:03.989Z,14.07
2023-05-11T05:37:30.640Z,14.18
2023-05-11T05:39:57.119Z,14.90
2023-05-11T05:42:23.640Z,13.55
2023-05-11T05:44:50.103Z,15.48
2023-05-11T05:47:16.608Z,13.38
2023-05-11T05:49:43.198Z,13.13
2023-05-11T05:52:10.317Z,14.20
2023-05-11T05:54:36.709Z,13.90
2023-05-11T05:57:03.138Z,13.50
2023-05-11T05:59:30.021Z,14.52
2023-05-11T06:01:56.546Z,13.65
2023-05-11T06:04:23.070Z,14.00
2023-05-11T06:06:49.851Z,13.23
2023-05-11T06:09:16.558Z,14.27
2023-05-11T06:11:43.035Z,13.55
2023-05-11T06:14:09.503Z,14.25
2023-05-11T06:16:36.118Z,13.75
2023-05-11T06:19:02.848Z,12.85
2023-05-11T06:21:30.491Z,14.00
2023-05-11T06:23:56.928Z,14.65
2023-05-11T06:26:25.103Z,13.82
2023-05-11T06:28:52.546Z,14.55
2023-05-11T06:31:19.080Z,14.10
2023-05-11T06:33:45.660Z,14.43
2023-05-11T06:36:12.158Z,15.02
2023-05-11T06:38:38.604Z,15.20
2023-05-11T06:41:05.230Z,16.40
2023-05-11T06:43:31.720Z,14.95
2023-05-11T06:45:58.183Z,15.40
2023-05-11T06:48:25.924Z,15.98
2023-05-11T06:50:52.456Z,15.77
2023-05-11T06:53:18.884Z,17.38
2023-05-11T06:55:45.396Z,15.98
2023-05-11T06:58:11.911Z,16.90
2023-05-11T07:00:38.681Z,17.77
2023-05-11T07:03:05.412Z,18.88
2023-05-11T07:05:32.239Z,18.33
2023-05-11T07:07:58.751Z,16.38
2023-05-11T07:10:26.102Z,15.23
2023-05-11T07:12:52.714Z,18.05
2023-05-11T07:15:19.229Z,17.85
2023-05-11T07:17:47.708Z,18.30
2023-05-11T07:20:14.692Z,18.40
2023-05-11T07:22:41.240Z,18.23
2023-05-11T07:25:09.684Z,18.23
2023-05-11T07:27:36.432Z,19.00
2023-05-11T07:30:06.537Z,17.65
2023-05-11T07:32:33.217Z,17.65
2023-05-11T07:34:59.727Z,17.90
2023-05-11T07:37:26.228Z,17.75
2023-05-11T07:39:54.203Z,17.67
2023-05-11T07:42:20.606Z,18.67
2023-05-11T07:44:47.118Z,16.90
2023-05-11T07:47:13.661Z,17.40
2023-05-11T07:49:44.031Z,16.80
2023-05-11T07:52:11.611Z,16.10
2023-05-11T07:54:38.868Z,15.57
2023-05-11T07:57:05.630Z,17.17
2023-05-11T07:59:32.279Z,16.75
2023-05-11T08:01:58.885Z,17.55
2023-05-11T08:04:27.584Z,15.50
2023-05-11T08:06:54.036Z,15.70
2023-05-11T08:09:20.424Z,15.38
2023-05-11T08:11:46.976Z,15.88
2023-05-11T08:14:13.544Z,15.98
2023-05-11T08:16:40.071Z,15.77
2023-05-11T08:19:06.704Z,17.20
2023-05-11T08:21:33.255Z,15.73
2023-05-11T08:23:59.776Z,16.75
2023-05-11T08:26:26.154Z,16.85
2023-05-11T08:28:52.857Z,17.52
2023-05-11T08:31:19.394Z,15.73
2023-05-11T08:33:45.944Z,15.45
2023-05-11T08:36:15.740Z,15.85
2023-05-11T08:41:12.006Z,16.83
2023-05-11T08:43:39.805Z,16.55
2023-05-11T08:46:09.162Z,15.57
2023-05-11T08:48:36.194Z,15.52
2023-05-11T08:51:06.451Z,15.98
2023-05-11T08:53:33.284Z,16.10
2023-05-11T08:56:01.196Z,16.10
2023-05-11T08:58:27.940Z,15.35
2023-05-11T09:00:54.639Z,14.73
2023-05-11T09:03:22.323Z,14.00
2023-05-11T09:05:50.015Z,14.43
2023-05-11T09:08:18.492Z,14.32
2023-05-11T09:10:45.104Z,15.20
2023-05-11T09:13:12.292Z,17.35
2023-05-11T09:15:38.691Z,17.80
2023-05-11T09:18:05.707Z,17.05
2023-05-11T09:20:33.538Z,19.67
2023-05-11T09:23:00.500Z,19.00
2023-05-11T09:25:30.537Z,18.75
2023-05-11T09:27:57.906Z,19.02
2023-05-11T09:30:24.492Z,17.88
2023-05-11T09:33:01.195Z,18.33
2023-05-11T09:35:32.233Z,18.33
2023-05-11T09:38:09.069Z,19.13
2023-05-11T09:40:39.841Z,19.33
2023-05-11T09:43:35.923Z,20.02
2023-05-11T09:46:07.068Z,18.23
2023-05-11T09:48:35.223Z,21.63
2023-05-11T09:51:06.235Z,17.95
2023-05-11T09:53:38.589Z,19.45
2023-05-11T09:56:05.592Z,18.30
2023-05-11T09:58:55.266Z,19.45
2023-05-11T10:01:30.513Z,19.13
2023-05-11T10:04:09.000Z,18.45
2023-05-11T10:06:48.424Z,17.42
2023-05-11T10:09:16.560Z,17.55
2023-05-11T10:11:45.702Z,16.05
2023-05-11T10:14:13.778Z,17.23
2023-05-11T10:16:42.215Z,17.38
2023-05-11T10:19:09.034Z,17.55
2023-05-11T10:21:35.618Z,14.90
2023-05-11T10:24:03.737Z,15.10
2023-05-11T10:26:32.074Z,14.77
2023-05-11T10:29:01.799Z,13.45
2023-05-11T10:31:29.233Z,13.10
2023-05-11T10:33:57.164Z,12.18
2023-05-11T10:36:24.318Z,11.48
2023-05-11T10:38:50.968Z,10.75
2023-05-11T10:41:48.904Z,9.98
2023-05-11T10:44:24.092Z,8.48
2023-05-11T10:46:59.272Z,5.95
2023-05-11T10:49:44.969Z,5.40
2023-05-11T10:52:29.328Z,5.68
2023-05-11T10:55:17.798Z,5.88
2023-05-11T10:58:03.113Z,4.68
2023-05-11T11:00:54.148Z,5.28
2023-05-11T11:03:20.790Z,4.68
2023-05-11T11:05:48.204Z,5.50
2023-05-11T11:08:14.783Z,5.35
2023-05-11T11:10:46.441Z,5.03
2023-05-11T11:13:14.313Z,5.32
2023-05-11T11:15:52.894Z,6.13
2023-05-11T11:18:27.160Z,6.72
2023-05-11T11:20:58.034Z,8.10
2023-05-11T11:23:39.705Z,7.85
2023-05-11T11:26:06.966Z,8.75
2023-05-11T11:29:00.588Z,8.35
2023-05-11T11:31:27.493Z,8.80
2023-05-11T11:33:58.754Z,9.27
2023-05-11T11:36:56.038Z,9.13
2023-05-11T11:39:23.081Z,8.70
2023-05-11T11:42:03.921Z,9.55
2023-05-11T11:44:30.904Z,8.27
2023-05-11T11:47:16.309Z,6.95
2023-05-11T11:49:45.649Z,7.22
2023-05-11T11:52:33.495Z,7.90
2023-05-11T11:55:01.184Z,6.75
2023-05-11T11:57:37.991Z,5.70
2023-05-11T12:00:07.049Z,5.32
2023-05-11T12:02:34.194Z,5.07
2023-05-11T12:05:23.388Z,4.80
2023-05-11T12:07:52.292Z,4.60
2023-05-11T12:10:23.051Z,4.97
2023-05-11T12:12:51.262Z,4.55
2023-05-11T12:15:33.767Z,4.82
2023-05-11T12:18:02.824Z,6.35
2023-05-11T12:20:29.365Z,5.97
2023-05-11T12:22:56.485Z,7.07
2023-05-11T12:25:23.566Z,6.45
2023-05-11T12:28:03.281Z,6.05
2023-05-11T12:30:31.467Z,6.07
2023-05-11T12:32:59.960Z,7.00
2023-05-11T12:35:31.630Z,7.43
2023-05-11T12:38:00.190Z,6.82
2023-05-11T12:40:27.299Z,7.70
2023-05-11T12:42:58.988Z,7.35
2023-05-11T12:45:26.805Z,8.32
2023-05-11T12:47:54.803Z,9.27
2023-05-11T12:50:21.866Z,10.60
2023-05-11T12:52:50.190Z,9.30
2023-05-11T12:55:29.506Z,9.50
2023-05-11T12:58:13.686Z,7.43
2023-05-11T13:00:57.539Z,6.45
2023-05-11T13:03:28.625Z,6.40
2023-05-11T13:06:06.575Z,5.97
2023-05-11T13:08:33.161Z,5.95
2023-05-11T13:11:17.651Z,6.15
2023-05-11T13:13:44.540Z,6.07
2023-05-11T13:16:11.201Z,4.72
2023-05-11T13:18:37.767Z,4.75
2023-05-11T13:21:06.398Z,5.25
2023-05-11T13:23:32.939Z,4.60
2023-05-11T13:25:59.433Z,5.28
2023-05-11T13:28:26.382Z,5.55
2023-05-11T13:31:00.187Z,4.68
2023-05-11T13:33:26.956Z,5.10
2023-05-11T13:35:53.480Z,4.20
2023-05-11T13:38:19.951Z,5.75
2023-05-11T13:40:46.658Z,5.30
2023-05-11T13:43:13.163Z,4.78
2023-05-11T13:45:41.147Z,5.18
2023-05-11T13:48:07.728Z,4.30
2023-05-11T13:50:34.562Z,4.45
2023-05-11T13:53:01.561Z,4.88
2023-05-11T13:55:28.614Z,4.22
2023-05-11T13:57:56.296Z,4.80
2023-05-11T14:00:22.880Z,3.90
2023-05-11T14:02:50.817Z,3.97
2023-05-11T14:05:17.757Z,4.07
2023-05-11T14:07:48.439Z,5.80
2023-05-11T14:10:19.520Z,6.45
2023-05-11T14:12:46.574Z,6.10
2023-05-11T14:15:13.323Z,6.72
2023-05-11T14:17:42.715Z,5.80
2023-05-11T14:20:11.287Z,5.20
2023-05-11T14:22:39.040Z,4.72
2023-05-11T14:25:06.078Z,4.43
2023-05-11T14:27:32.756Z,4.35
2023-05-11T14:29:59.172Z,4.57
2023-05-11T14:32:25.622Z,5.85
2023-05-11T14:34:52.267Z,5.72
2023-05-11T14:37:18.691Z,6.25
2023-05-11T14:39:45.225Z,7.70
2023-05-11T14:42:11.700Z,7.05
2023-05-11T14:44:38.194Z,7.75
2023-05-11T14:47:05.465Z,7.25
2023-05-11T14:49:32.266Z,7.45
2023-05-11T14:51:59.406Z,6.68
2023-05-11T14:54:25.921Z,5.88
2023-05-11T14:56:55.337Z,5.90
2023-05-11T14:59:24.290Z,6.28
2023-05-11T15:01:50.991Z,6.90
2023-05-11T15:04:19.514Z,7.38
2023-05-11T15:06:46.184Z,7.40
2023-05-11T15:09:12.654Z,8.20
2023-05-11T15:11:39.131Z,8.25
2023-05-11T15:14:07.013Z,8.60
2023-05-11T15:16:33.561Z,7.10
2023-05-11T15:19:00.162Z,7.05
2023-05-11T15:21:28.180Z,6.63
2023-05-11T15:23:54.650Z,6.45
2023-05-11T15:26:22.217Z,6.20
2023-05-11T15:28:48.985Z,5.95
2023-05-11T15:31:15.542Z,5.97
2023-05-11T15:33:42.535Z,5.25
2023-05-11T15:36:15.421Z,5.70
2023-05-11T15:38:43.035Z,5.40
2023-05-11T15:41:09.617Z,5.78
2023-05-11T15:43:36.173Z,5.57
2023-05-11T15:46:03.669Z,4.43
2023-05-11T15:48:30.364Z,4.22
2023-05-11T15:50:58.741Z,3.03
2023-05-11T15:53:25.307Z,3.20
2023-05-11T15:55:55.099Z,2.53
2023-05-11T15:58:22.110Z,3.22
2023-05-11T16:00:49.141Z,3.38
2023-05-11T16:03:15.953Z,3.95
2023-05-11T16:05:42.516Z,3.30
2023-05-11T16:08:08.944Z,3.42
2023-05-11T16:10:35.365Z,4.22
2023-05-11T16:13:01.840Z,2.85
2023-05-11T16:15:29.378Z,2.58
2023-05-11T16:17:55.954Z,2.65
2023-05-11T16:20:22.602Z,2.83
2023-05-11T16:22:49.092Z,3.40
2023-05-11T16:25:16.109Z,2.95
2023-05-11T16:27:42.653Z,5.05
2023-05-11T16:30:22.283Z,5.60
2023-05-11T16:32:51.072Z,5.70
2023-05-11T16:35:17.644Z,5.80
2023-05-11T16:37:44.109Z,5.43
2023-05-11T16:40:10.848Z,5.38
2023-05-11T16:42:37.372Z,5.80
2023-05-11T16:45:04.042Z,5.43
2023-05-11T16:47:31.365Z,6.30
2023-05-11T16:49:57.905Z,5.80
2023-05-11T16:52:24.722Z,6.25
2023-05-11T16:54:51.148Z,5.93
2023-05-11T16:57:17.659Z,5.90
2023-05-11T16:59:44.075Z,5.75
2023-05-11T17:02:10.630Z,5.03
2023-05-11T17:04:37.163Z,5.20
2023-05-11T17:07:03.679Z,4.53
2023-05-11T17:09:30.960Z,4.13
2023-05-11T17:11:57.455Z,3.90
2023-05-11T17:14:23.974Z,4.28
2023-05-11T17:16:50.435Z,4.07
2023-05-11T17:19:16.973Z,4.88
2023-05-11T17:21:43.435Z,6.75
2023-05-11T17:24:10.005Z,7.05
2023-05-11T17:26:47.280Z,7.47
2023-05-11T17:29:15.524Z,6.85
2023-05-11T17:31:42.473Z,7.82
2023-05-11T17:34:09.392Z,7.43
2023-05-11T17:36:36.182Z,8.60
2023-05-11T17:39:02.773Z,7.40
2023-05-11T17:41:29.241Z,6.10
2023-05-11T17:43:55.817Z,5.82
2023-05-11T17:46:22.421Z,4.85
2023-05-11T17:48:49.244Z,4.43
2023-05-11T17:51:15.854Z,4.47
2023-05-11T17:53:42.551Z,4.13
2023-05-11T17:56:11.623Z,4.07
2023-05-11T17:58:38.245Z,3.35
2023-05-11T18:01:13.687Z,3.25
2023-05-11T18:03:40.999Z,2.78
2023-05-11T18:06:08.532Z,2.58
2023-05-11T18:08:36.557Z,2.60
2023-05-11T18:11:03.338Z,2.40
2023-05-11T18:13:30.983Z,2.60
2023-05-11T18:15:58.443Z,2.72
2023-05-11T18:18:25.462Z,3.08
2023-05-11T18:20:51.987Z,3.53
2023-05-11T18:23:18.595Z,3.53
2023-05-11T18:25:45.068Z,3.90
2023-05-11T18:28:11.545Z,4.13
2023-05-11T18:30:38.577Z,5.30
2023-05-11T18:33:05.293Z,4.32
2023-05-11T18:35:31.816Z,5.43
2023-05-11T18:37:59.538Z,6.50
2023-05-11T18:40:26.168Z,6.40
2023-05-11T18:42:53.119Z,5.90
2023-05-11T18:45:19.679Z,5.60
2023-05-11T18:47:46.515Z,5.40
2023-05-11T18:50:13.264Z,6.07
2023-05-11T18:52:39.707Z,6.75
2023-05-11T18:55:06.554Z,6.53
2023-05-11T18:57:34.489Z,6.38
2023-05-11T19:00:01.345Z,6.63
2023-05-11T19:02:28.115Z,6.28
2023-05-11T19:04:54.761Z,6.00
2023-05-11T19:07:21.218Z,5.30
2023-05-11T19:09:47.666Z,5.65
2023-05-11T19:12:14.258Z,5.57
2023-05-11T19:14:40.791Z,5.43
2023-05-11T19:17:07.195Z,5.47
2023-05-11T19:19:34.309Z,5.32
2023-05-11T19:22:00.996Z,5.18
2023-05-11T19:24:28.160Z,5.55
2023-05-11T19:27:05.739Z,5.40
2023-05-11T19:29:32.897Z,13.20
2023-05-11T19:31:59.462Z,6.78
2023-05-11T19:34:25.989Z,6.18
2023-05-11T19:36:52.499Z,6.13
2023-05-11T19:39:19.035Z,6.63
2023-05-11T19:41:45.632Z,6.35
2023-05-11T19:44:12.098Z,6.50
2023-05-11T19:46:45.543Z,6.38
2023-05-11T19:49:16.233Z,6.70
2023-05-11T19:51:43.336Z,6.75
2023-05-11T19:54:10.957Z,6.70
2023-05-11T19:56:38.123Z,6.60
2023-05-11T19:59:04.726Z,6.82
2023-05-11T20:01:31.521Z,6.75
2023-05-11T20:03:58.293Z,6.60
2023-05-11T20:06:27.791Z,6.25
2023-05-11T20:08:54.354Z,6.20
2023-05-11T20:11:22.199Z,6.60
2023-05-11T20:13:49.073Z,6.80
2023-05-11T20:16:15.613Z,6.90
2023-05-11T20:18:42.127Z,6.53
2023-05-11T20:21:08.732Z,6.53
2023-05-11T20:23:37.467Z,6.68
2023-05-11T20:26:04.321Z,6.90
2023-05-11T20:28:31.067Z,6.70
2023-05-11T20:30:57.507Z,7.30
2023-05-11T20:35:53.738Z,7.32
2023-05-11T20:38:20.680Z,6.90
2023-05-11T20:40:47.237Z,7.35
2023-05-11T20:43:14.920Z,7.43
2023-05-11T20:45:41.806Z,7.00
2023-05-11T20:48:08.477Z,7.75
2023-05-11T20:50:35.004Z,7.40
2023-05-11T20:53:01.520Z,6.90
2023-05-11T20:55:28.952Z,7.40
2023-05-11T20:57:55.476Z,7.47
2023-05-11T21:00:22.583Z,7.57
2023-05-11T21:02:49.548Z,7.82
2023-05-11T21:05:16.048Z,8.45
2023-05-11T21:07:42.451Z,9.23
2023-05-11T21:10:11.318Z,10.38
2023-05-11T21:12:37.741Z,9.70
2023-05-11T21:15:04.535Z,10.07
2023-05-11T21:17:31.026Z,9.80
2023-05-11T21:19:57.439Z,11.23
2023-05-11T21:22:23.889Z,10.57
2023-05-11T21:24:50.346Z,10.13
2023-05-11T21:27:17.227Z,11.02
2023-05-11T21:29:43.793Z,10.45
2023-05-11T21:32:10.439Z,9.93
2023-05-11T21:34:36.949Z,10.18
2023-05-11T21:37:03.643Z,9.43
2023-05-11T21:39:30.068Z,9.50
2023-05-11T21:41:56.874Z,9.25
2023-05-11T21:44:23.440Z,8.25
2023-05-11T21:46:50.509Z,8.02
2023-05-11T21:49:17.201Z,8.80
2023-05-11T21:51:43.706Z,8.70
2023-05-11T21:54:10.165Z,7.90
2023-05-11T21:56:36.924Z,7.13
2023-05-11T21:59:03.501Z,8.05
2023-05-11T22:01:30.059Z,7.90
2023-05-11T22:03:56.701Z,8.60
2023-05-11T22:06:23.271Z,7.97
2023-05-11T22:08:49.676Z,7.78
2023-05-11T22:11:16.110Z,8.52
2023-05-11T22:13:42.814Z,7.10
2023-05-11T22:16:09.352Z,7.30
2023-05-11T22:18:35.863Z,6.53
2023-05-11T22:21:02.824Z,6.45
2023-05-11T22:23:29.378Z,6.07
2023-05-11T22:25:55.819Z,5.38
2023-05-11T22:28:22.338Z,5.45
2023-05-11T22:30:48.809Z,5.60
2023-05-11T22:33:15.428Z,4.90
2023-05-11T22:35:42.498Z,5.32
2023-05-11T22:38:08.946Z,5.25
2023-05-11T22:40:35.597Z,5.00
2023-05-11T22:43:03.007Z,5.10
2023-05-11T22:45:29.530Z,4.72
2023-05-11T22:47:56.027Z,5.00
2023-05-11T22:50:22.580Z,4.75
2023-05-11T22:52:49.134Z,4.85
2023-05-11T22:55:15.622Z,4.75
2023-05-11T22:57:42.087Z,4.95
2023-05-11T23:00:11.619Z,4.82
2023-05-11T23:02:38.325Z,4.25
2023-05-11T23:05:05.270Z,4.57
2023-05-11T23:07:31.752Z,3.78
2023-05-11T23:09:58.269Z,4.43
2023-05-11T23:12:24.766Z,5.10
2023-05-11T23:14:51.258Z,4.35
2023-05-11T23:17:17.965Z,4.45
2023-05-11T23:19:44.482Z,4.05
2023-05-11T23:22:11.033Z,4.97
2023-05-11T23:24:37.467Z,4.25
2023-05-11T23:27:04.213Z,3.95
2023-05-11T23:29:30.707Z,4.60
2023-05-11T23:31:57.141Z,4.25
2023-05-11T23:34:23.711Z,5.07
2023-05-11T23:36:50.304Z,4.68
2023-05-11T23:39:16.826Z,4.05
2023-05-11T23:41:43.253Z,4.22
2023-05-11T23:44:09.767Z,4.43
2023-05-11T23:46:36.363Z,4.03
2023-05-11T23:49:03.168Z,5.15
2023-05-11T23:51:29.706Z,4.63
2023-05-11T23:53:56.174Z,5.20
2023-05-11T23:56:22.636Z,4.22
2023-05-11T23:58:50.654Z,4.53
